| time (UTC) | temp F | wind direction | speed knots | gust knots | rain 1hr in | rain 24hr in | rain mn in | humidity % | barometer mb |
| 20260906064520 | 74 | 103 | 0.0 | 0.0 | 0.00 | 0.00 | 0.00 | 94 | 1012.0 |
| 20260906063008 | 74 | 105 | 0.0 | 0.0 | 0.00 | 0.00 | 0.00 | 93 | 1011.5 |
| 20260906061506 | 74 | 105 | 0.0 | 0.0 | 0.00 | 0.00 | 0.00 | 93 | 1011.5 |
| 20260906060004 | 74 | 105 | 0.0 | 0.0 | 0.00 | 0.00 | 0.00 | 93 | 1011.5 |
| 20260906054502 | 74 | 105 | 0.0 | 0.0 | 0.00 | 0.00 | 0.00 | 92 | 1011.4 |
| 20260906053101 | 74 | 105 | 0.0 | 0.0 | 0.00 | 0.00 | 0.00 | 92 | 1011.2 |
| 20260906051559 | 74 | 105 | 0.0 | 0.0 | 0.00 | 0.00 | 0.00 | 91 | 1011.2 |
| 20260906050112 | 75 | 105 | 0.0 | 0.0 | 0.00 | 0.00 | 0.00 | 91 | 1011.2 |
| 20260906044556 | 75 | 105 | 0.0 | 0.0 | 0.00 | 0.00 | 0.00 | 91 | 1011.3 |
| 20260906043057 | 76 | 105 | 0.0 | 0.0 | 0.00 | 0.00 | 0.00 | 90 | 1011.5 |
| 20260906041555 | 76 | 105 | 0.0 | 0.0 | 0.00 | 0.00 | 0.00 | 89 | 1011.5 |
| 20260906040054 | 76 | 105 | 0.0 | 0.0 | 0.00 | 0.00 | 0.00 | 89 | 1011.5 |
| 20260906034559 | 77 | 105 | 0.0 | 0.0 | 0.00 | 0.00 | 0.00 | 88 | 1011.5 |
| 20260906033053 | 77 | 105 | 0.0 | 0.0 | 0.00 | 0.00 | 0.00 | 87 | 1011.5 |
| 20260906031616 | 77 | 105 | 0.0 | 0.0 | 0.00 | 0.00 | 0.00 | 86 | 1011.4 |
| 20260906030052 | 78 | 105 | 0.0 | 0.0 | 0.00 | 0.00 | 0.00 | 86 | 1011.3 |
| 20260906024556 | 78 | 105 | 0.0 | 0.0 | 0.00 | 0.00 | 0.00 | 85 | 1011.2 |
| 20260906023107 | 79 | 105 | 0.0 | 0.0 | 0.00 | 0.00 | 0.00 | 85 | 1011.0 |
| 20260906021552 | 79 | 105 | 0.0 | 0.0 | 0.00 | 0.00 | 0.00 | 85 | 1010.7 |
| 20260906020056 | 79 | 105 | 0.0 | 0.0 | 0.00 | 0.00 | 0.00 | 86 | 1010.5 |
| 20260906014550 | 79 | 105 | 0.0 | 0.0 | 0.00 | 0.00 | 0.00 | 86 | 1010.4 |
| 20260906013049 | 81 | 105 | 0.0 | 0.9 | 0.00 | 0.00 | 0.00 | 84 | 1010.2 |
| 20260906011553 | 83 | 107 | 0.0 | 0.0 | 0.00 | 0.00 | 0.00 | 80 | 1010.2 |
| 20260906010048 | 84 | 107 | 0.0 | 5.2 | 0.00 | 0.00 | 0.00 | 75 | 1010.0 |
| 20260906004555 | 83 | 60 | 0.0 | 5.2 | 0.00 | 0.00 | 0.00 | 81 | 1010.0 |
| 20260906003051 | 83 | 244 | 0.0 | 0.0 | 0.00 | 0.00 | 0.00 | 87 | 1009.8 |
| 20260906001547 | 83 | 244 | 0.0 | 0.0 | 0.00 | 0.00 | 0.00 | 86 | 1010.0 |
| 20260906000052 | 84 | 211 | 0.0 | 0.0 | 0.00 | 0.00 | 0.00 | 84 | 1010.1 |
| 20260905234545 | 85 | 211 | 0.0 | 0.0 | 0.00 | 0.00 | 0.00 | 83 | 1009.8 |
| 20260905233050 | 86 | 197 | 0.0 | 0.0 | 0.00 | 0.00 | 0.00 | 82 | 1009.9 |
| 20260905231548 | 87 | 197 | 0.0 | 0.0 | 0.00 | 0.00 | 0.00 | 80 | 1009.9 |
| 20260905230044 | 88 | 197 | 0.0 | 0.0 | 0.00 | 0.00 | 0.00 | 77 | 1009.7 |
| 20260905224544 | 89 | 194 | 0.0 | 0.0 | 0.00 | 0.00 | 0.00 | 74 | 1009.7 |
| 20260905223043 | 91 | 244 | 0.0 | 3.5 | 0.00 | 0.00 | 0.00 | 68 | 1009.7 |
| 20260905221558 | 93 | 267 | 0.0 | 0.0 | 0.00 | 0.00 | 0.00 | 59 | 1009.8 |
| 20260905220040 | 94 | 267 | 0.0 | 0.0 | 0.00 | 0.00 | 0.00 | 59 | 1009.9 |
| 20260905214538 | 94 | 267 | 0.0 | 0.0 | 0.00 | 0.00 | 0.00 | 62 | 1010.1 |
| 20260905213038 | 96 | 323 | 0.0 | 0.0 | 0.00 | 0.00 | 0.00 | 55 | 1010.0 |
| 20260905211537 | 97 | 323 | 0.0 | 0.0 | 0.00 | 0.00 | 0.00 | 50 | 1010.0 |
| 20260905210036 | 97 | 196 | 0.0 | 1.7 | 0.00 | 0.00 | 0.00 | 55 | 1010.1 |
| 20260905204538 | 97 | 15 | 0.9 | 6.1 | 0.00 | 0.07 | 0.00 | 50 | 1010.2 |
| 20260905203034 | 97 | 27 | 0.0 | 7.0 | 0.00 | 0.07 | 0.00 | 50 | 1010.4 |
| 20260905201531 | 97 | 51 | 0.9 | 7.0 | 0.00 | 0.07 | 0.00 | 48 | 1010.6 |
| 20260905200031 | 97 | 21 | 0.0 | 6.1 | 0.00 | 0.07 | 0.00 | 51 | 1011.0 |
| 20260905194525 | 96 | 30 | 1.7 | 6.1 | 0.00 | 0.07 | 0.00 | 53 | 1011.2 |
| 20260905193024 | 96 | 15 | 3.5 | 7.8 | 0.00 | 0.07 | 0.00 | 53 | 1011.3 |
| 20260905191521 | 96 | 355 | 0.9 | 9.6 | 0.00 | 0.07 | 0.00 | 54 | 1011.5 |
| 20260905190027 | 96 | 336 | 0.9 | 5.2 | 0.00 | 0.07 | 0.00 | 57 | 1011.9 |
| 20260905184516 | 95 | 5 | 3.5 | 7.0 | 0.00 | 0.07 | 0.00 | 61 | 1012.1 |
| 20260905183016 | 95 | 22 | 5.2 | 7.8 | 0.00 | 0.07 | 0.00 | 58 | 1012.2 |
| 20260905181513 | 94 | 349 | 0.0 | 6.1 | 0.00 | 0.07 | 0.00 | 63 | 1012.4 |
| 20260905180011 | 94 | 24 | 3.5 | 8.7 | 0.00 | 0.07 | 0.00 | 60 | 1012.6 |
| 20260905174506 | 93 | 27 | 2.6 | 7.0 | 0.00 | 0.07 | 0.00 | 62 | 1012.6 |
| 20260905173005 | 93 | 355 | 2.6 | 5.2 | 0.00 | 0.07 | 0.00 | 62 | 1012.8 |
| 20260905171502 | 93 | 76 | 0.0 | 0.9 | 0.00 | 0.07 | 0.00 | 63 | 1013.0 |
| 20260905170105 | 92 | 263 | 0.0 | 0.0 | 0.00 | 0.07 | 0.00 | 62 | 1013.1 |
| 20260905164603 | 92 | 251 | 0.0 | 0.0 | 0.00 | 0.07 | 0.00 | 67 | 1013.2 |
| 20260905163056 | 91 | 220 | 0.0 | 0.0 | 0.00 | 0.07 | 0.00 | 64 | 1013.5 |
| 20260905161554 | 91 | 342 | 0.0 | 6.1 | 0.00 | 0.07 | 0.00 | 66 | 1013.7 |
| 20260905160056 | 90 | 293 | 0.9 | 5.2 | 0.00 | 0.07 | 0.00 | 68 | 1013.9 |
| 20260905154550 | 91 | 355 | 0.0 | 0.0 | 0.00 | 0.07 | 0.00 | 63 | 1013.9 |
| 20260905153041 | 91 | 172 | 0.0 | 0.0 | 0.00 | 0.07 | 0.00 | 69 | 1013.9 |
| 20260905151537 | 90 | 291 | 0.0 | 0.0 | 0.00 | 0.07 | 0.00 | 69 | 1014.0 |
| 20260905150032 | 89 | 15 | 0.0 | 0.0 | 0.00 | 0.07 | 0.00 | 70 | 1014.0 |
| 20260905144530 | 88 | 32 | 0.0 | 0.0 | 0.00 | 0.07 | 0.00 | 74 | 1013.9 |
| 20260905143025 | 87 | 292 | 0.0 | 0.0 | 0.00 | 0.07 | 0.00 | 77 | 1014.0 |
| 20260905141520 | 85 | 297 | 0.0 | 0.0 | 0.00 | 0.07 | 0.00 | 80 | 1014.1 |
| 20260905140020 | 83 | 281 | 0.0 | 0.0 | 0.00 | 0.07 | 0.00 | 84 | 1014.3 |
| 20260905134510 | 80 | 180 | 0.0 | 0.0 | 0.00 | 0.07 | 0.00 | 94 | 1014.3 |
| 20260905133008 | 78 | 180 | 0.0 | 0.0 | 0.00 | 0.07 | 0.00 | 97 | 1014.3 |
| 20260905131502 | 76 | 148 | 0.0 | 0.0 | 0.00 | 0.07 | 0.00 | 97 | 1014.4 |
| 20260905130057 | 75 | 313 | 0.0 | 0.0 | 0.00 | 0.07 | 0.00 | 97 | 1014.4 |
| 20260905124556 | 74 | 9 | 0.0 | 0.0 | 0.00 | 0.07 | 0.00 | 97 | 1014.5 |
| 20260905123048 | 73 | 9 | 0.0 | 0.0 | 0.00 | 0.07 | 0.00 | 97 | 1014.5 |
| 20260905121547 | 71 | 34 | 0.0 | 0.0 | 0.00 | 0.07 | 0.00 | 97 | 1014.1 |
| 20260905120053 | 71 | 34 | 0.0 | 0.0 | 0.00 | 0.07 | 0.00 | 96 | 1014.0 |
| 20260905114546 | 71 | 34 | 0.0 | 0.0 | 0.00 | 0.07 | 0.00 | 96 | 1013.8 |
| 20260905113032 | 71 | 34 | 0.0 | 0.0 | 0.00 | 0.07 | 0.00 | 96 | 1013.7 |
| 20260905111600 | 71 | 34 | 0.0 | 0.0 | 0.00 | 0.07 | 0.00 | 96 | 1013.5 |
| 20260905110029 | 71 | 34 | 0.0 | 0.0 | 0.00 | 0.07 | 0.00 | 96 | 1013.4 |
| 20260905104528 | 71 | 34 | 0.0 | 0.0 | 0.00 | 0.07 | 0.00 | 96 | 1013.2 |
| 20260905103034 | 71 | 34 | 0.0 | 0.0 | 0.00 | 0.07 | 0.00 | 96 | 1013.1 |
| 20260905101528 | 71 | 34 | 0.0 | 0.0 | 0.00 | 0.07 | 0.00 | 96 | 1013.0 |
| 20260905100026 | 71 | 34 | 0.0 | 0.0 | 0.00 | 0.07 | 0.00 | 96 | 1012.9 |
| 20260905094526 | 71 | 34 | 0.0 | 0.0 | 0.00 | 0.07 | 0.00 | 96 | 1012.8 |
| 20260905093024 | 71 | 34 | 0.0 | 0.0 | 0.00 | 0.07 | 0.00 | 96 | 1012.8 |
| 20260905091525 | 71 | 34 | 0.0 | 0.0 | 0.00 | 0.07 | 0.00 | 96 | 1012.7 |
| 20260905090023 | 71 | 34 | 0.0 | 0.0 | 0.00 | 0.07 | 0.00 | 96 | 1012.7 |
| 20260905084522 | 72 | 34 | 0.0 | 0.0 | 0.00 | 0.07 | 0.00 | 96 | 1012.8 |
| 20260905083021 | 72 | 34 | 0.0 | 0.0 | 0.00 | 0.07 | 0.00 | 96 | 1012.7 |
| 20260905081522 | 72 | 34 | 0.0 | 0.0 | 0.00 | 0.07 | 0.00 | 96 | 1012.6 |
| 20260905080028 | 72 | 34 | 0.0 | 0.0 | 0.00 | 0.07 | 0.00 | 96 | 1012.5 |
| 20260905074519 | 72 | 34 | 0.0 | 0.0 | 0.00 | 0.07 | 0.00 | 96 | 1012.4 |
| 20260905073020 | 72 | 34 | 0.0 | 0.0 | 0.00 | 0.07 | 0.00 | 96 | 1012.4 |
| 20260905071516 | 72 | 34 | 0.0 | 0.0 | 0.00 | 0.07 | 0.00 | 95 | 1012.5 |
| 20260905070024 | 73 | 34 | 0.0 | 0.0 | 0.00 | 0.07 | 0.00 | 96 | 1012.7 |